createdAt,value
2023-04-11T00:00:56.718Z,29.36
2023-04-11T00:01:56.782Z,29.39
2023-04-11T00:02:56.985Z,29.39
2023-04-11T00:03:57.143Z,29.40
2023-04-11T00:04:57.063Z,29.39
2023-04-11T00:05:57.061Z,29.38
2023-04-11T00:06:57.113Z,29.39
2023-04-11T00:07:57.177Z,29.39
2023-04-11T00:08:57.605Z,29.39
2023-04-11T00:09:57.265Z,29.39
2023-04-11T00:10:57.397Z,29.40
2023-04-11T00:11:57.427Z,29.38
2023-04-11T00:12:57.579Z,29.38
2023-04-11T00:13:57.748Z,29.38
2023-04-11T00:14:57.606Z,29.40
2023-04-11T00:15:57.764Z,29.38
2023-04-11T00:16:57.755Z,29.37
2023-04-11T00:17:57.885Z,29.39
2023-04-11T00:18:58.033Z,29.39
2023-04-11T00:19:57.969Z,29.39
2023-04-11T00:20:58.035Z,29.38
2023-04-11T00:21:58.092Z,29.38
2023-04-11T00:22:58.148Z,29.40
2023-04-11T00:23:58.241Z,29.40
2023-04-11T00:24:58.293Z,29.41
2023-04-11T00:25:58.376Z,29.40
2023-04-11T00:26:58.451Z,29.40
2023-04-11T00:27:58.479Z,29.40
2023-04-11T00:28:58.562Z,29.40
2023-04-11T00:29:58.613Z,29.41
2023-04-11T00:30:58.677Z,29.39
2023-04-11T00:31:58.766Z,29.40
2023-04-11T00:32:58.858Z,29.40
2023-04-11T00:33:58.879Z,29.39
2023-04-11T00:34:58.937Z,29.39
2023-04-11T00:35:59.092Z,29.40
2023-04-11T00:36:59.156Z,29.39
2023-04-11T00:37:59.156Z,29.39
2023-04-11T00:38:59.211Z,29.40
2023-04-11T00:39:59.256Z,29.40
2023-04-11T00:40:59.318Z,29.41
2023-04-11T00:41:59.403Z,29.41
2023-04-11T00:42:59.462Z,29.41
2023-04-11T00:43:59.522Z,29.41
2023-04-11T00:44:59.582Z,29.41
2023-04-11T00:45:59.707Z,29.39
2023-04-11T00:46:59.708Z,29.41
2023-04-11T00:47:59.865Z,29.43
2023-04-11T00:48:59.877Z,29.41
2023-04-11T00:49:59.967Z,29.41
2023-04-11T00:51:00.065Z,29.41
2023-04-11T00:52:00.050Z,29.40
2023-04-11T00:53:00.162Z,29.41
2023-04-11T00:54:00.178Z,29.39
2023-04-11T00:55:00.253Z,29.41
2023-04-11T00:56:00.328Z,29.43
2023-04-11T00:57:00.419Z,29.41
2023-04-11T00:58:00.441Z,29.41
2023-04-11T00:59:00.552Z,29.40
2023-04-11T01:00:00.587Z,29.41
2023-04-11T01:01:00.767Z,29.41
2023-04-11T01:02:00.831Z,29.43
2023-04-11T01:03:01.004Z,29.41
2023-04-11T01:04:01.126Z,29.42
2023-04-11T01:05:01.000Z,29.43
2023-04-11T01:06:01.016Z,29.42
2023-04-11T01:07:01.109Z,29.42
2023-04-11T01:08:01.137Z,29.41
2023-04-11T01:09:01.227Z,29.43
2023-04-11T01:10:01.287Z,29.42
2023-04-11T01:11:01.367Z,29.43
2023-04-11T01:12:01.599Z,29.44
2023-04-11T01:13:01.498Z,29.42
2023-04-11T01:14:01.564Z,29.41
2023-04-11T01:15:01.620Z,29.42
2023-04-11T01:16:01.707Z,29.42
2023-04-11T01:17:01.774Z,29.43
2023-04-11T01:18:01.993Z,29.42
2023-04-11T01:19:01.872Z,29.42
2023-04-11T01:20:01.978Z,29.42
2023-04-11T01:21:02.061Z,29.43
2023-04-11T01:22:02.103Z,29.41
2023-04-11T01:23:02.181Z,29.43
2023-04-11T01:24:02.214Z,29.43
2023-04-11T01:25:02.292Z,29.42
2023-04-11T01:26:02.403Z,29.43
2023-04-11T01:27:02.446Z,29.45
2023-04-11T01:28:02.539Z,29.43
2023-04-11T01:29:02.590Z,29.44
2023-04-11T01:30:02.665Z,29.43
2023-04-11T01:31:02.842Z,29.44
2023-04-11T01:32:02.805Z,29.44
2023-04-11T01:33:02.997Z,29.46
2023-04-11T01:34:02.943Z,29.44
2023-04-11T01:35:02.974Z,29.43
2023-04-11T01:36:03.156Z,29.44
2023-04-11T01:37:03.133Z,29.44
2023-04-11T01:38:03.199Z,29.44
2023-04-11T01:39:03.256Z,29.44
2023-04-11T01:40:03.329Z,29.45
2023-04-11T01:41:03.399Z,29.46
2023-04-11T01:42:03.440Z,29.45
2023-04-11T01:43:03.514Z,29.43
2023-04-11T01:44:03.597Z,29.43
2023-04-11T01:45:03.677Z,29.44
2023-04-11T01:46:03.768Z,29.46
2023-04-11T01:47:03.831Z,29.42
2023-04-11T01:48:03.932Z,29.44
2023-04-11T01:49:04.060Z,29.47
2023-04-11T01:50:04.043Z,29.43
2023-04-11T01:51:04.105Z,29.44
2023-04-11T01:52:04.152Z,29.44
2023-04-11T01:53:04.280Z,29.46
2023-04-11T01:54:04.327Z,29.45
2023-04-11T01:55:04.391Z,29.45
2023-04-11T01:56:04.460Z,29.44
2023-04-11T01:57:04.515Z,29.44
2023-04-11T01:58:04.582Z,29.42
2023-04-11T01:59:04.681Z,29.45
2023-04-11T02:00:04.742Z,29.44
2023-04-11T02:01:04.857Z,29.44
2023-04-11T02:02:05.037Z,29.45
2023-04-11T02:03:05.066Z,29.46
2023-04-11T02:04:05.136Z,29.47
2023-04-11T02:05:05.113Z,29.43
2023-04-11T02:06:05.169Z,29.45
2023-04-11T02:07:05.241Z,29.46
2023-04-11T02:08:05.280Z,29.43
2023-04-11T02:09:05.374Z,29.44
2023-04-11T02:10:05.439Z,29.45
2023-04-11T02:11:05.507Z,29.46
2023-04-11T02:12:05.581Z,29.46
2023-04-11T02:13:05.650Z,29.46
2023-04-11T02:14:05.709Z,29.45
2023-04-11T02:15:05.771Z,29.45
2023-04-11T02:16:05.912Z,29.46
2023-04-11T02:17:05.887Z,29.47
2023-04-11T02:18:06.017Z,29.46
2023-04-11T02:19:06.087Z,29.48
2023-04-11T02:20:06.171Z,29.47
2023-04-11T02:21:06.186Z,29.46
2023-04-11T02:22:06.294Z,29.46
2023-04-11T02:23:06.327Z,29.48
2023-04-11T02:24:06.449Z,29.47
2023-04-11T02:25:06.498Z,29.46
2023-04-11T02:26:06.556Z,29.47
2023-04-11T02:27:06.596Z,29.47
2023-04-11T02:28:08.225Z,29.48
2023-04-11T02:29:06.762Z,29.48
2023-04-11T02:30:06.825Z,29.47
2023-04-11T02:31:07.054Z,29.47
2023-04-11T02:32:07.113Z,29.48
2023-04-11T02:33:07.086Z,29.46
2023-04-11T02:34:07.136Z,29.47
2023-04-11T02:35:07.199Z,29.48
2023-04-11T02:36:07.302Z,29.46
2023-04-11T02:37:07.366Z,29.48
2023-04-11T02:38:07.436Z,29.47
2023-04-11T02:39:07.469Z,29.47
2023-04-11T02:40:07.542Z,29.48
2023-04-11T02:41:07.642Z,29.49
2023-04-11T02:42:07.749Z,29.50
2023-04-11T02:43:07.807Z,29.50
2023-04-11T02:44:07.878Z,29.50
2023-04-11T02:45:07.934Z,29.48
2023-04-11T02:46:12.704Z,29.51
2023-04-11T02:47:09.122Z,29.49
2023-04-11T02:48:08.036Z,29.49
2023-04-11T02:49:08.057Z,29.50
2023-04-11T02:50:08.055Z,29.49
2023-04-11T02:51:08.077Z,29.51
2023-04-11T02:52:08.090Z,29.50
2023-04-11T02:53:08.132Z,29.50
2023-04-11T02:54:08.104Z,29.49
2023-04-11T02:55:08.133Z,29.49
2023-04-11T02:56:08.163Z,29.52
2023-04-11T02:57:08.235Z,29.51
2023-04-11T02:58:08.317Z,29.50
2023-04-11T02:59:08.369Z,29.51
2023-04-11T03:00:08.428Z,29.49
2023-04-11T03:01:08.537Z,29.50
2023-04-11T03:02:08.661Z,29.50
2023-04-11T03:03:08.796Z,29.49
2023-04-11T03:04:08.827Z,29.53
2023-04-11T03:05:08.801Z,29.52
2023-04-11T03:06:08.873Z,29.50
2023-04-11T03:07:08.931Z,29.50
2023-04-11T03:08:09.140Z,29.50
2023-04-11T03:09:09.109Z,29.52
2023-04-11T03:10:09.174Z,29.51
2023-04-11T03:11:09.275Z,29.52
2023-04-11T03:12:09.355Z,29.51
2023-04-11T03:13:09.432Z,29.51
2023-04-11T03:14:09.502Z,29.51
2023-04-11T03:15:09.576Z,29.51
2023-04-11T03:16:09.685Z,29.52
2023-04-11T03:17:09.725Z,29.50
2023-04-11T03:18:09.841Z,29.49
2023-04-11T03:19:09.892Z,29.52
2023-04-11T03:20:09.964Z,29.51
2023-04-11T03:21:10.080Z,29.51
2023-04-11T03:22:10.173Z,29.50
2023-04-11T03:23:10.236Z,29.51
2023-04-11T03:24:10.373Z,29.53
2023-04-11T03:25:10.414Z,29.51
2023-04-11T03:26:10.469Z,29.51
2023-04-11T03:27:11.201Z,29.52
2023-04-11T03:28:10.681Z,29.52
2023-04-11T03:29:10.700Z,29.51
2023-04-11T03:30:10.823Z,29.50
2023-04-11T03:31:10.912Z,29.53
2023-04-11T03:32:10.939Z,29.53
2023-04-11T03:33:11.055Z,29.54
2023-04-11T03:34:11.100Z,29.51
2023-04-11T03:35:11.205Z,29.50
2023-04-11T03:36:11.334Z,29.52
2023-04-11T03:37:11.388Z,29.50
2023-04-11T03:38:11.690Z,29.52
2023-04-11T03:39:11.514Z,29.53
2023-04-11T03:40:11.592Z,29.52
2023-04-11T03:41:11.688Z,29.52
2023-04-11T03:42:11.760Z,29.54
2023-04-11T03:43:11.854Z,29.52
2023-04-11T03:44:11.904Z,29.53
2023-04-11T03:45:11.989Z,29.52
2023-04-11T03:46:12.120Z,29.53
2023-04-11T03:47:12.187Z,29.53
2023-04-11T03:48:12.244Z,29.53
2023-04-11T03:49:12.307Z,29.53
2023-04-11T03:50:12.414Z,29.53
2023-04-11T03:51:12.488Z,29.53
2023-04-11T03:52:12.548Z,29.53
2023-04-11T03:53:12.629Z,29.53
2023-04-11T03:54:12.717Z,29.53
2023-04-11T03:55:12.795Z,29.52
2023-04-11T03:56:12.862Z,29.55
2023-04-11T03:57:12.976Z,29.54
2023-04-11T03:58:13.030Z,29.52
2023-04-11T03:59:13.165Z,29.53
2023-04-11T04:00:13.245Z,29.52
2023-04-11T04:01:13.306Z,29.55
2023-04-11T04:02:14.881Z,29.54
2023-04-11T04:03:13.691Z,29.53
2023-04-11T04:04:13.558Z,29.53
2023-04-11T04:05:13.669Z,29.54
2023-04-11T04:06:13.675Z,29.53
2023-04-11T04:07:13.767Z,29.54
2023-04-11T04:08:13.833Z,29.53
2023-04-11T04:09:13.904Z,29.53
2023-04-11T04:10:13.998Z,29.52
2023-04-11T04:11:14.084Z,29.54
2023-04-11T04:12:14.172Z,29.54
2023-04-11T04:13:14.241Z,29.55
2023-04-11T04:14:14.317Z,29.52
2023-04-11T04:15:14.384Z,29.53
2023-04-11T04:16:14.523Z,29.55
2023-04-11T04:17:14.610Z,29.53
2023-04-11T04:18:14.630Z,29.54
2023-04-11T04:19:14.725Z,29.53
2023-04-11T04:20:14.810Z,29.53
2023-04-11T04:21:14.854Z,29.54
2023-04-11T04:22:14.949Z,29.56
2023-04-11T04:23:15.014Z,29.55
2023-04-11T04:24:15.096Z,29.56
2023-04-11T04:25:15.180Z,29.56
2023-04-11T04:26:15.270Z,29.55
2023-04-11T04:27:15.359Z,29.53
2023-04-11T04:28:15.445Z,29.55
2023-04-11T04:29:15.496Z,29.55
2023-04-11T04:30:15.632Z,29.54
2023-04-11T04:31:15.718Z,29.56
2023-04-11T04:32:15.756Z,29.54
2023-04-11T04:33:15.991Z,29.55
2023-04-11T04:34:15.943Z,29.56
2023-04-11T04:35:16.027Z,29.55
2023-04-11T04:36:16.084Z,29.55
2023-04-11T04:37:16.170Z,29.55
2023-04-11T04:38:16.246Z,29.57
2023-04-11T04:39:16.316Z,29.55
2023-04-11T04:40:16.422Z,29.56
2023-04-11T04:41:16.520Z,29.55
2023-04-11T04:42:16.585Z,29.55
2023-04-11T04:43:16.692Z,29.55
2023-04-11T04:44:16.753Z,29.56
2023-04-11T04:45:16.813Z,29.54
2023-04-11T04:46:17.052Z,29.55
2023-04-11T04:47:16.969Z,29.56
2023-04-11T04:48:17.047Z,29.56
2023-04-11T04:49:17.132Z,29.58
2023-04-11T04:50:17.228Z,29.56
2023-04-11T04:51:17.350Z,29.56
2023-04-11T04:52:17.389Z,29.57
2023-04-11T04:53:17.489Z,29.56
2023-04-11T04:54:17.546Z,29.59
2023-04-11T04:55:17.655Z,29.59
2023-04-11T04:56:17.692Z,29.58
2023-04-11T04:57:17.837Z,29.58
2023-04-11T04:58:17.902Z,29.60
2023-04-11T04:59:17.985Z,29.57
2023-04-11T05:00:18.037Z,29.57
2023-04-11T05:01:18.155Z,29.60
2023-04-11T05:02:18.338Z,29.60
2023-04-11T05:03:18.432Z,29.58
2023-04-11T05:04:18.452Z,29.56
2023-04-11T05:05:18.440Z,29.59
2023-04-11T05:06:19.758Z,29.60
2023-04-11T05:07:18.595Z,29.58
2023-04-11T05:08:18.668Z,29.61
2023-04-11T05:09:18.764Z,29.61
2023-04-11T05:10:19.772Z,29.62
2023-04-11T05:11:18.944Z,29.61
2023-04-11T05:12:18.987Z,29.60
2023-04-11T05:13:19.074Z,29.62
2023-04-11T05:14:19.155Z,29.61
2023-04-11T05:15:19.248Z,29.64
2023-04-11T05:16:19.322Z,29.64
2023-04-11T05:17:19.496Z,29.63
2023-04-11T05:18:19.471Z,29.63
2023-04-11T05:19:19.546Z,29.64
2023-04-11T05:20:19.642Z,29.63
2023-04-11T05:21:19.717Z,29.64
2023-04-11T05:22:19.799Z,29.65
2023-04-11T05:23:19.869Z,29.65
2023-04-11T05:24:19.961Z,29.66
2023-04-11T05:25:20.018Z,29.67
2023-04-11T05:26:20.106Z,29.68
2023-04-11T05:27:20.166Z,29.66
2023-04-11T05:28:20.269Z,29.66
2023-04-11T05:29:20.352Z,29.69
2023-04-11T05:30:20.424Z,29.69
2023-04-11T05:31:20.614Z,29.68
2023-04-11T05:32:20.639Z,29.69
2023-04-11T05:33:20.683Z,29.72
2023-04-11T05:34:20.759Z,29.73
2023-04-11T05:35:20.808Z,29.73
2023-04-11T05:36:20.932Z,29.73
2023-04-11T05:37:20.997Z,29.76
2023-04-11T05:38:21.096Z,29.76
2023-04-11T05:39:21.166Z,29.78
2023-04-11T05:40:21.226Z,29.75
2023-04-11T05:41:21.313Z,29.78
2023-04-11T05:42:21.413Z,29.78
2023-04-11T05:43:21.470Z,29.78
2023-04-11T05:44:21.574Z,29.79
2023-04-11T05:45:21.621Z,29.81
2023-04-11T05:46:21.773Z,29.82
2023-04-11T05:47:21.877Z,29.82
2023-04-11T05:48:21.883Z,29.82
2023-04-11T05:49:21.949Z,29.83
2023-04-11T05:50:22.017Z,29.84
2023-04-11T05:51:22.095Z,29.84
2023-04-11T05:52:22.188Z,29.85
2023-04-11T05:53:22.282Z,29.85
2023-04-11T05:54:22.391Z,29.86
2023-04-11T05:55:22.439Z,29.87
2023-04-11T05:56:22.504Z,29.87
2023-04-11T05:57:22.564Z,29.88
2023-04-11T05:58:22.685Z,29.88
2023-04-11T05:59:27.052Z,29.90
2023-04-11T06:00:23.776Z,29.92
2023-04-11T06:01:22.791Z,29.93
2023-04-11T06:02:22.988Z,29.94
2023-04-11T06:03:22.901Z,29.92
2023-04-11T06:04:22.951Z,29.93
2023-04-11T06:05:22.833Z,29.98
2023-04-11T06:06:22.852Z,29.96
2023-04-11T06:07:22.857Z,29.98
2023-04-11T06:08:23.003Z,29.97
2023-04-11T06:09:23.021Z,30.00
2023-04-11T06:10:23.125Z,30.00
2023-04-11T06:11:23.202Z,30.01
2023-04-11T06:12:23.236Z,30.01
2023-04-11T06:13:23.357Z,30.04
2023-04-11T06:14:23.434Z,30.04
2023-04-11T06:15:23.529Z,30.05
2023-04-11T06:16:23.707Z,30.03
2023-04-11T06:17:23.684Z,30.05
2023-04-11T06:18:23.726Z,30.06
2023-04-11T06:19:23.828Z,30.07
2023-04-11T06:20:23.897Z,30.07
2023-04-11T06:21:23.975Z,30.07
2023-04-11T06:22:24.063Z,30.07
2023-04-11T06:23:24.136Z,30.10
2023-04-11T06:24:24.204Z,30.11
2023-04-11T06:25:24.298Z,30.11
2023-04-11T06:26:24.382Z,30.13
2023-04-11T06:27:24.439Z,30.14
2023-04-11T06:28:24.580Z,30.14
2023-04-11T06:29:24.600Z,30.15
2023-04-11T06:30:24.683Z,30.15
2023-04-11T06:31:24.781Z,30.17
2023-04-11T06:32:24.928Z,30.15
2023-04-11T06:33:24.948Z,30.18
2023-04-11T06:34:24.996Z,30.19
2023-04-11T06:35:25.072Z,30.21
2023-04-11T06:36:25.142Z,30.20
2023-04-11T06:37:25.227Z,30.23
2023-04-11T06:38:25.334Z,30.23
2023-04-11T06:39:25.368Z,30.25
2023-04-11T06:40:25.485Z,30.26
2023-04-11T06:41:25.582Z,30.25
2023-04-11T06:42:25.636Z,30.27
2023-04-11T06:43:25.720Z,30.28
2023-04-11T06:44:25.777Z,30.27
2023-04-11T06:45:25.980Z,30.27
2023-04-11T06:46:25.954Z,30.30
2023-04-11T06:47:26.035Z,30.29
2023-04-11T06:48:26.096Z,30.31
2023-04-11T06:49:26.167Z,30.34
2023-04-11T06:50:26.231Z,30.36
2023-04-11T06:51:26.329Z,30.37
2023-04-11T06:52:27.717Z,30.37
2023-04-11T06:53:26.472Z,30.39
2023-04-11T06:54:26.528Z,30.38
2023-04-11T06:55:26.609Z,30.39
2023-04-11T06:56:26.682Z,30.39
2023-04-11T06:57:26.776Z,30.42
2023-04-11T06:58:26.853Z,30.43
2023-04-11T06:59:27.457Z,30.44
2023-04-11T07:00:27.010Z,30.43
2023-04-11T07:01:27.106Z,30.47
2023-04-11T07:02:27.378Z,30.50
2023-04-11T07:03:27.378Z,30.51
2023-04-11T07:04:27.392Z,30.50
2023-04-11T07:05:27.387Z,30.52
2023-04-11T07:06:27.467Z,30.52
2023-04-11T07:07:27.561Z,30.57
2023-04-11T07:08:27.613Z,30.56
2023-04-11T07:09:27.697Z,30.57
2023-04-11T07:10:27.892Z,30.56
2023-04-11T07:11:27.874Z,30.58
2023-04-11T07:12:27.930Z,30.60
2023-04-11T07:13:28.056Z,30.60
2023-04-11T07:14:28.106Z,30.62
2023-04-11T07:15:28.186Z,30.62
2023-04-11T07:16:28.407Z,30.64
2023-04-11T07:17:28.384Z,30.64
2023-04-11T07:18:28.441Z,30.67
2023-04-11T07:19:28.484Z,30.67
2023-04-11T07:20:28.564Z,30.67
2023-04-11T07:21:28.636Z,30.68
2023-04-11T07:22:28.728Z,30.71
2023-04-11T07:23:28.837Z,30.72
2023-04-11T07:24:28.879Z,30.74
2023-04-11T07:25:28.946Z,30.76
2023-04-11T07:26:29.076Z,30.75
2023-04-11T07:27:29.115Z,30.78
2023-04-11T07:28:29.219Z,30.76
2023-04-11T07:29:29.264Z,30.80
2023-04-11T07:30:29.325Z,30.80
2023-04-11T07:31:29.421Z,30.79
2023-04-11T07:32:29.505Z,30.80
2023-04-11T07:33:29.588Z,30.83
2023-04-11T07:34:29.627Z,30.83
2023-04-11T07:35:29.703Z,30.87
2023-04-11T07:36:29.775Z,30.86
2023-04-11T07:37:29.846Z,30.88
2023-04-11T07:38:29.945Z,30.90
2023-04-11T07:39:30.013Z,30.90
2023-04-11T07:40:30.079Z,30.92
2023-04-11T07:41:30.183Z,30.95
2023-04-11T07:42:30.240Z,30.94
2023-04-11T07:43:30.335Z,30.93
2023-04-11T07:44:30.402Z,30.94
2023-04-11T07:45:30.530Z,30.96
2023-04-11T07:46:30.570Z,30.99
2023-04-11T07:47:30.646Z,31.00
2023-04-11T07:48:30.738Z,31.00
2023-04-11T07:49:30.752Z,30.98
2023-04-11T07:50:30.838Z,31.02
2023-04-11T07:51:30.906Z,31.01
2023-04-11T07:52:31.018Z,31.04
2023-04-11T07:53:31.115Z,31.04
2023-04-11T07:54:31.129Z,31.03
2023-04-11T07:55:31.194Z,31.05
2023-04-11T07:56:31.311Z,31.08
2023-04-11T07:57:31.371Z,31.09
2023-04-11T07:58:31.412Z,31.08
2023-04-11T07:59:31.485Z,31.09
2023-04-11T08:00:31.547Z,31.07
2023-04-11T08:01:31.641Z,31.10
2023-04-11T08:02:31.867Z,31.13
2023-04-11T08:03:31.940Z,31.15
2023-04-11T08:04:31.976Z,31.18
2023-04-11T08:05:32.022Z,31.18
2023-04-11T08:06:32.050Z,31.17
2023-04-11T08:07:32.087Z,31.17
2023-04-11T08:08:32.184Z,31.17
2023-04-11T08:09:32.264Z,31.22
2023-04-11T08:10:32.365Z,31.22
2023-04-11T08:11:32.376Z,31.23
2023-04-11T08:12:32.457Z,31.23
2023-04-11T08:13:32.562Z,31.25
2023-04-11T08:14:32.597Z,31.29
2023-04-11T08:15:32.655Z,31.28
2023-04-11T08:16:32.788Z,31.28
2023-04-11T08:17:33.088Z,31.30
2023-04-11T08:18:32.888Z,31.31
2023-04-11T08:19:32.992Z,31.35
2023-04-11T08:20:33.071Z,31.36
2023-04-11T08:21:33.145Z,31.37
2023-04-11T08:22:33.223Z,31.35
2023-04-11T08:23:33.281Z,31.36
2023-04-11T08:24:33.340Z,31.37
2023-04-11T08:25:33.424Z,31.37
2023-04-11T08:26:33.478Z,31.39
2023-04-11T08:27:33.559Z,31.43
2023-04-11T08:28:33.645Z,31.41
2023-04-11T08:29:33.708Z,31.46
2023-04-11T08:30:33.819Z,31.45
2023-04-11T08:31:33.865Z,31.47
2023-04-11T08:32:33.955Z,31.48
2023-04-11T08:33:34.072Z,31.51
2023-04-11T08:34:34.047Z,31.47
2023-04-11T08:35:34.155Z,31.50
2023-04-11T08:36:34.225Z,31.49
2023-04-11T08:37:34.296Z,31.51
2023-04-11T08:38:34.362Z,31.52
2023-04-11T08:39:34.430Z,31.55
2023-04-11T08:40:34.495Z,31.54
2023-04-11T08:41:34.556Z,31.57
2023-04-11T08:42:34.633Z,31.60
2023-04-11T08:43:34.724Z,31.60
2023-04-11T08:44:34.772Z,31.58
2023-04-11T08:45:34.861Z,31.60
2023-04-11T08:46:34.934Z,31.61
2023-04-11T08:47:35.034Z,31.63
2023-04-11T08:48:35.056Z,31.63
2023-04-11T08:49:35.145Z,31.65
2023-04-11T08:50:35.199Z,31.68
2023-04-11T08:51:35.343Z,31.68
2023-04-11T08:52:35.359Z,31.73
2023-04-11T08:53:35.453Z,31.73
2023-04-11T08:54:35.503Z,31.75
2023-04-11T08:55:35.598Z,31.75
2023-04-11T08:56:35.672Z,31.79
2023-04-11T08:57:35.724Z,31.80
2023-04-11T08:58:35.810Z,31.79
2023-04-11T08:59:35.887Z,31.80
2023-04-11T09:00:35.924Z,31.82
2023-04-11T09:01:36.011Z,31.82
2023-04-11T09:02:36.215Z,31.82
2023-04-11T09:03:36.409Z,31.82
2023-04-11T09:04:36.281Z,31.87
2023-04-11T09:05:36.308Z,31.87
2023-04-11T09:06:36.367Z,31.87
2023-04-11T09:07:36.432Z,31.90
2023-04-11T09:08:36.519Z,31.90
2023-04-11T09:09:36.593Z,31.94
2023-04-11T09:10:36.686Z,31.94
2023-04-11T09:11:36.734Z,31.95
2023-04-11T09:12:36.806Z,31.96
2023-04-11T09:13:36.894Z,32.00
2023-04-11T09:14:36.943Z,31.95
2023-04-11T09:15:37.031Z,31.99
2023-04-11T09:16:37.078Z,32.01
2023-04-11T09:17:37.181Z,32.02
2023-04-11T09:18:37.223Z,32.05
2023-04-11T09:19:37.314Z,32.07
2023-04-11T09:20:37.352Z,32.04
2023-04-11T09:21:37.452Z,32.05
2023-04-11T09:22:37.560Z,32.09
2023-04-11T09:23:37.603Z,32.10
2023-04-11T09:24:37.695Z,32.13
2023-04-11T09:25:37.795Z,32.13
2023-04-11T09:26:37.854Z,32.13
2023-04-11T09:27:37.906Z,32.16
2023-04-11T09:28:37.980Z,32.15
2023-04-11T09:29:38.066Z,32.19
2023-04-11T09:30:38.107Z,32.22
2023-04-11T09:31:38.261Z,32.23
2023-04-11T09:32:38.333Z,32.23
2023-04-11T09:33:38.342Z,32.25
2023-04-11T09:34:39.148Z,32.29
2023-04-11T09:35:38.537Z,32.27
2023-04-11T09:36:38.557Z,32.25
2023-04-11T09:37:38.608Z,32.28
2023-04-11T09:38:38.686Z,32.27
2023-04-11T09:39:38.757Z,32.30
2023-04-11T09:40:38.826Z,32.34
2023-04-11T09:41:38.915Z,32.37
2023-04-11T09:42:38.964Z,32.39
2023-04-11T09:43:39.316Z,32.38
2023-04-11T09:44:39.103Z,32.38
2023-04-11T09:45:51.688Z,32.39
2023-04-11T09:46:40.278Z,32.38
2023-04-11T09:47:39.267Z,32.41
2023-04-11T09:48:46.607Z,32.46
2023-04-11T09:49:40.242Z,32.47
2023-04-11T09:50:39.270Z,32.49
2023-04-11T09:51:39.303Z,32.51
2023-04-11T09:52:39.336Z,32.50
2023-04-11T09:53:39.339Z,32.54
2023-04-11T09:54:39.377Z,32.53
2023-04-11T09:55:39.386Z,32.55
2023-04-11T09:56:39.408Z,32.58
2023-04-11T09:57:39.469Z,32.55
2023-04-11T09:58:39.523Z,32.61
2023-04-11T09:59:39.548Z,32.59
2023-04-11T10:00:39.547Z,32.58
2023-04-11T10:01:39.702Z,32.61
2023-04-11T10:02:39.918Z,32.64
2023-04-11T10:03:39.814Z,32.66
2023-04-11T10:04:39.840Z,32.69
2023-04-11T10:05:39.914Z,32.65
2023-04-11T10:06:39.966Z,32.66
2023-04-11T10:07:40.032Z,32.67
2023-04-11T10:08:40.091Z,32.67
2023-04-11T10:09:40.158Z,32.68
2023-04-11T10:10:40.211Z,32.70
2023-04-11T10:11:40.299Z,32.72
2023-04-11T10:12:40.361Z,32.72
2023-04-11T10:13:40.430Z,32.75
2023-04-11T10:14:40.473Z,32.74
2023-04-11T10:15:40.575Z,32.75
2023-04-11T10:16:40.623Z,32.74
2023-04-11T10:17:40.733Z,32.73
2023-04-11T10:18:40.752Z,32.77
2023-04-11T10:19:40.856Z,32.74
2023-04-11T10:20:40.878Z,32.76
2023-04-11T10:21:40.951Z,32.79
2023-04-11T10:22:41.015Z,32.72
2023-04-11T10:23:41.090Z,32.72
2023-04-11T10:24:41.121Z,32.75
2023-04-11T10:25:41.214Z,32.78
2023-04-11T10:26:41.245Z,32.78
2023-04-11T10:27:41.354Z,32.81
2023-04-11T10:28:41.424Z,32.81
2023-04-11T10:29:41.423Z,32.85
2023-04-11T10:30:41.521Z,32.85
2023-04-11T10:31:41.588Z,32.88
2023-04-11T10:32:41.687Z,32.88
2023-04-11T10:33:41.708Z,32.88
2023-04-11T10:34:41.785Z,32.94
2023-04-11T10:35:41.881Z,32.96
2023-04-11T10:36:41.886Z,32.91
2023-04-11T10:37:41.945Z,32.92
2023-04-11T10:38:42.140Z,32.93
2023-04-11T10:39:42.098Z,32.94
2023-04-11T10:40:42.167Z,32.98
2023-04-11T10:41:42.243Z,32.98
2023-04-11T10:42:42.330Z,33.00
2023-04-11T10:43:42.333Z,33.04
2023-04-11T10:44:42.418Z,33.05
2023-04-11T10:45:42.465Z,33.03
2023-04-11T10:46:42.519Z,33.00
2023-04-11T10:47:42.631Z,33.04
2023-04-11T10:48:42.662Z,33.06
2023-04-11T10:49:43.023Z,33.07
2023-04-11T10:50:42.759Z,33.10
2023-04-11T10:51:42.828Z,33.15
2023-04-11T10:52:42.840Z,33.17
2023-04-11T10:53:42.916Z,33.19
2023-04-11T10:54:42.943Z,33.15
2023-04-11T10:55:42.997Z,33.23
2023-04-11T10:56:43.086Z,33.20
2023-04-11T10:57:43.092Z,33.16
2023-04-11T10:58:43.167Z,33.13
2023-04-11T10:59:43.223Z,33.10
2023-04-11T11:00:43.320Z,33.16
2023-04-11T11:02:44.487Z,33.16
2023-04-11T11:03:43.591Z,33.20
2023-04-11T11:04:43.478Z,33.19
2023-04-11T11:05:43.434Z,33.20
2023-04-11T11:06:50.994Z,33.27
2023-04-11T11:07:44.477Z,33.24
2023-04-11T11:08:43.507Z,33.26
2023-04-11T11:09:43.552Z,33.23
2023-04-11T11:10:43.551Z,33.27
2023-04-11T11:11:43.592Z,33.25
2023-04-11T11:12:43.614Z,33.24
2023-04-11T11:13:43.634Z,33.33
2023-04-11T11:14:43.678Z,33.35
2023-04-11T11:15:43.669Z,33.37
2023-04-11T11:16:44.671Z,33.38
2023-04-11T11:17:43.794Z,33.38
2023-04-11T11:18:43.760Z,33.34
2023-04-11T11:19:43.793Z,33.31
2023-04-11T11:20:43.773Z,33.36
2023-04-11T11:21:43.781Z,33.39
2023-04-11T11:22:43.818Z,33.44
2023-04-11T11:23:43.863Z,33.51
2023-04-11T11:24:43.861Z,33.58
2023-04-11T11:25:43.902Z,33.56
2023-04-11T11:26:43.945Z,33.52
2023-04-11T11:27:43.925Z,33.50
2023-04-11T11:28:43.979Z,33.53
2023-04-11T11:29:44.009Z,33.52
2023-04-11T11:30:44.059Z,33.55
2023-04-11T11:31:44.111Z,33.56
2023-04-11T11:32:44.192Z,33.57
2023-04-11T11:33:44.157Z,33.61
2023-04-11T11:34:44.210Z,33.64
2023-04-11T11:35:44.259Z,33.64
2023-04-11T11:36:44.356Z,33.62
2023-04-11T11:37:44.327Z,33.60
2023-04-11T11:38:44.394Z,33.65
2023-04-11T11:39:44.409Z,33.66
2023-04-11T11:40:44.485Z,33.77
2023-04-11T11:41:44.528Z,33.71
2023-04-11T11:42:44.588Z,33.69
2023-04-11T11:43:44.678Z,33.73
2023-04-11T11:44:44.637Z,33.66
2023-04-11T11:45:44.792Z,33.69
2023-04-11T11:46:44.866Z,33.68
2023-04-11T11:47:44.793Z,33.76
2023-04-11T11:48:44.861Z,33.79
2023-04-11T11:49:44.862Z,33.78
2023-04-11T11:50:44.910Z,33.89
2023-04-11T11:51:44.978Z,33.91
2023-04-11T11:52:45.010Z,33.84
2023-04-11T11:53:45.073Z,33.97
2023-04-11T11:54:45.096Z,33.86
2023-04-11T11:55:45.172Z,33.89
2023-04-11T11:56:45.168Z,33.90
2023-04-11T11:57:45.269Z,33.93
2023-04-11T11:58:45.301Z,33.95
2023-04-11T11:59:45.354Z,33.91
2023-04-11T12:00:45.385Z,33.91
2023-04-11T12:01:45.442Z,34.01
2023-04-11T12:02:45.769Z,34.06
2023-04-11T12:03:45.715Z,34.04
2023-04-11T12:04:45.828Z,33.99
2023-04-11T12:05:45.603Z,34.00
2023-04-11T12:06:45.646Z,33.99
2023-04-11T12:07:45.723Z,34.01
2023-04-11T12:08:46.390Z,34.15
2023-04-11T12:09:45.799Z,34.24
2023-04-11T12:10:46.429Z,34.31
2023-04-11T12:11:45.931Z,34.36
2023-04-11T12:12:53.640Z,34.24
2023-04-11T12:13:46.959Z,34.17
2023-04-11T12:14:45.977Z,34.14
2023-04-11T12:15:46.063Z,34.14
2023-04-11T12:16:45.987Z,34.21
2023-04-11T12:17:46.070Z,34.24
2023-04-11T12:18:46.081Z,34.23
2023-04-11T12:19:46.084Z,34.27
2023-04-11T12:20:46.118Z,34.24
2023-04-11T12:21:46.112Z,34.25
2023-04-11T12:22:46.153Z,34.26
2023-04-11T12:23:46.147Z,34.27
2023-04-11T12:24:46.177Z,34.30
2023-04-11T12:25:46.299Z,34.27
2023-04-11T12:27:02.788Z,34.32
2023-04-11T12:27:47.301Z,34.38
2023-04-11T12:28:46.247Z,34.37
2023-04-11T12:29:46.274Z,34.39
2023-04-11T12:30:46.345Z,34.38
2023-04-11T12:31:46.343Z,34.39
2023-04-11T12:32:46.391Z,34.33
2023-04-11T12:33:46.366Z,34.37
2023-04-11T12:34:46.363Z,34.36
2023-04-11T12:35:46.411Z,34.34
2023-04-11T12:36:46.400Z,34.35
2023-04-11T12:37:46.420Z,34.44
2023-04-11T12:38:46.440Z,34.48
2023-04-11T12:39:46.490Z,34.43
2023-04-11T12:40:46.507Z,34.45
2023-04-11T12:41:46.512Z,34.42
2023-04-11T12:42:56.427Z,34.37
2023-04-11T12:43:47.549Z,34.43
2023-04-11T12:44:46.565Z,34.45
2023-04-11T12:45:46.599Z,34.48
2023-04-11T12:46:46.645Z,34.45
2023-04-11T12:47:46.649Z,34.49
2023-04-11T12:48:46.620Z,34.46
2023-04-11T12:49:46.670Z,34.44
2023-04-11T12:50:46.669Z,34.49
2023-04-11T12:51:46.714Z,34.51
2023-04-11T12:52:46.716Z,34.56
2023-04-11T12:53:46.729Z,34.60
2023-04-11T12:54:46.762Z,34.58